createdAt,value
2016-08-24T00:00:18.663Z,0
2016-08-24T00:01:18.657Z,0
2016-08-24T00:02:18.657Z,0
2016-08-24T00:03:18.655Z,0
2016-08-24T00:04:18.646Z,0
2016-08-24T00:05:18.652Z,0
2016-08-24T00:06:18.648Z,0
2016-08-24T00:07:18.641Z,0
2016-08-24T00:08:18.649Z,0
2016-08-24T00:09:19.334Z,0
2016-08-24T00:10:18.627Z,0
2016-08-24T00:11:18.625Z,0
2016-08-24T00:12:18.627Z,0
2016-08-24T00:13:19.312Z,0
2016-08-24T00:14:18.615Z,0
2016-08-24T00:15:18.621Z,0
2016-08-24T00:16:18.619Z,0
2016-08-24T00:17:18.615Z,0
2016-08-24T00:18:18.601Z,0
2016-08-24T00:19:18.609Z,0
2016-08-24T00:20:18.601Z,0
2016-08-24T00:21:18.596Z,0
2016-08-24T00:22:18.594Z,0
2016-08-24T00:23:18.592Z,0
2016-08-24T00:24:18.582Z,0
2016-08-24T00:25:18.578Z,0
2016-08-24T00:26:18.575Z,0
2016-08-24T00:27:21.436Z,0
2016-08-24T00:28:20.870Z,0
2016-08-24T00:29:20.014Z,0
2016-08-24T00:30:19.922Z,0
2016-08-24T00:31:19.433Z,0
2016-08-24T00:32:18.561Z,0
2016-08-24T00:33:18.801Z,0
2016-08-24T00:34:18.672Z,0
2016-08-24T00:35:18.550Z,0
2016-08-24T00:36:18.957Z,0
2016-08-24T00:37:18.691Z,0
2016-08-24T00:38:20.205Z,0
2016-08-24T00:39:18.537Z,0
2016-08-24T00:40:18.524Z,0
2016-08-24T00:41:18.528Z,0
2016-08-24T00:42:18.531Z,0
2016-08-24T00:43:18.528Z,0
2016-08-24T00:44:18.518Z,0
2016-08-24T00:45:18.515Z,0
2016-08-24T00:46:18.513Z,0
2016-08-24T00:47:18.510Z,0
2016-08-24T00:48:18.514Z,0
2016-08-24T00:49:18.501Z,0
2016-08-24T00:50:18.516Z,0
2016-08-24T00:51:18.493Z,0
2016-08-24T00:52:18.493Z,0
2016-08-24T00:53:18.496Z,0
2016-08-24T00:54:18.488Z,0
2016-08-24T00:55:18.488Z,0
2016-08-24T00:56:18.504Z,0
2016-08-24T00:57:18.478Z,0
2016-08-24T00:58:18.476Z,0
2016-08-24T00:59:18.485Z,0
2016-08-24T01:00:18.474Z,0
2016-08-24T01:01:18.469Z,0
2016-08-24T01:02:18.466Z,0
2016-08-24T01:03:18.461Z,0
2016-08-24T01:04:33.373Z,0
2016-08-24T01:05:19.255Z,0
2016-08-24T01:06:18.606Z,0
2016-08-24T01:07:18.451Z,0
2016-08-24T01:08:18.456Z,0
2016-08-24T01:10:18.449Z,0
2016-08-24T01:11:18.446Z,0
2016-08-24T01:12:18.436Z,0
2016-08-24T01:13:34.462Z,0
2016-08-24T01:14:18.684Z,0
2016-08-24T01:15:18.680Z,0
2016-08-24T01:17:18.425Z,0
2016-08-24T01:18:19.274Z,0
2016-08-24T01:19:18.417Z,0
2016-08-24T01:20:19.125Z,0
2016-08-24T01:21:18.418Z,0
2016-08-24T01:22:18.420Z,0
2016-08-24T01:23:18.410Z,0
2016-08-24T01:24:18.414Z,0
2016-08-24T01:25:18.402Z,0
2016-08-24T01:26:18.402Z,0
2016-08-24T01:27:18.412Z,0
2016-08-24T01:28:18.399Z,0
2016-08-24T01:29:18.397Z,0
2016-08-24T01:30:18.396Z,0
2016-08-24T01:31:18.390Z,0
2016-08-24T01:32:18.398Z,0
2016-08-24T01:33:18.383Z,0
2016-08-24T01:34:18.381Z,0
2016-08-24T01:35:18.387Z,0
2016-08-24T01:36:18.376Z,0
2016-08-24T01:37:18.385Z,0
2016-08-24T01:38:18.373Z,0
2016-08-24T01:39:18.370Z,0
2016-08-24T01:40:19.065Z,0
2016-08-24T01:41:19.067Z,0
2016-08-24T01:42:18.362Z,0
2016-08-24T01:43:18.384Z,0
2016-08-24T01:44:18.364Z,0
2016-08-24T01:45:19.878Z,0
2016-08-24T01:46:18.357Z,0
2016-08-24T01:47:20.112Z,0
2016-08-24T01:48:18.361Z,0
2016-08-24T01:49:18.508Z,0
2016-08-24T01:50:18.347Z,0
2016-08-24T01:51:18.921Z,0
2016-08-24T01:52:18.339Z,0
2016-08-24T01:53:18.337Z,0
2016-08-24T01:54:21.249Z,0
2016-08-24T01:55:21.275Z,0
2016-08-24T01:56:18.346Z,0
2016-08-24T01:57:19.604Z,0
2016-08-24T01:58:19.897Z,0
2016-08-24T01:59:19.067Z,0
2016-08-24T02:00:18.321Z,0
2016-08-24T02:01:18.566Z,0
2016-08-24T02:02:18.339Z,0
2016-08-24T02:03:18.317Z,0
2016-08-24T02:04:18.312Z,0
2016-08-24T02:05:18.317Z,0
2016-08-24T02:06:19.003Z,0
2016-08-24T02:07:18.301Z,0
2016-08-24T02:08:18.318Z,0
2016-08-24T02:09:18.309Z,0
2016-08-24T02:10:18.314Z,0
2016-08-24T02:11:18.319Z,0
2016-08-24T02:12:18.294Z,0
2016-08-24T02:13:18.295Z,0
2016-08-24T02:14:18.296Z,0
2016-08-24T02:15:18.286Z,0
2016-08-24T02:16:18.297Z,0
2016-08-24T02:17:18.294Z,0
2016-08-24T02:18:18.987Z,0
2016-08-24T02:19:18.279Z,0
2016-08-24T02:20:18.285Z,0
2016-08-24T02:21:18.272Z,0
2016-08-24T02:22:19.242Z,0
2016-08-24T02:23:33.593Z,0
2016-08-24T02:24:20.021Z,0
2016-08-24T02:26:18.515Z,0
2016-08-24T02:27:18.261Z,0
2016-08-24T02:28:18.611Z,0
2016-08-24T02:29:18.608Z,0
2016-08-24T02:30:18.261Z,0
2016-08-24T02:31:18.263Z,0
2016-08-24T02:32:18.756Z,0
2016-08-24T02:33:19.250Z,0
2016-08-24T02:35:18.236Z,0
2016-08-24T02:36:18.261Z,0
2016-08-24T02:37:18.390Z,0
2016-08-24T02:38:18.236Z,0
2016-08-24T02:39:18.336Z,0
2016-08-24T02:40:18.940Z,0
2016-08-24T02:41:18.244Z,0
2016-08-24T02:42:18.233Z,0
2016-08-24T02:43:18.931Z,0
2016-08-24T02:44:18.226Z,0
2016-08-24T02:45:18.228Z,0
2016-08-24T02:46:18.216Z,0
2016-08-24T02:47:18.225Z,0
2016-08-24T02:48:18.233Z,0
2016-08-24T02:49:18.216Z,0
2016-08-24T02:50:18.224Z,0
2016-08-24T02:51:18.216Z,0
2016-08-24T02:52:18.211Z,0
2016-08-24T02:53:18.217Z,0
2016-08-24T02:54:18.206Z,0
2016-08-24T02:55:18.206Z,0
2016-08-24T02:56:18.206Z,0
2016-08-24T02:57:18.203Z,0
2016-08-24T02:58:18.210Z,0
2016-08-24T02:59:18.199Z,0
2016-08-24T03:00:18.196Z,0
2016-08-24T03:01:18.192Z,0
2016-08-24T03:02:18.192Z,0
2016-08-24T03:03:19.973Z,0
2016-08-24T03:04:21.007Z,0
2016-08-24T03:05:18.183Z,0
2016-08-24T03:06:19.715Z,0
2016-08-24T03:07:18.178Z,0
2016-08-24T03:08:18.176Z,0
2016-08-24T03:09:18.571Z,0
2016-08-24T03:10:18.178Z,0
2016-08-24T03:11:18.177Z,0
2016-08-24T03:14:20.566Z,0
2016-08-24T03:15:19.577Z,0
2016-08-24T03:16:18.190Z,0
2016-08-24T03:17:18.157Z,0
2016-08-24T03:18:18.165Z,0
2016-08-24T03:19:18.189Z,0
2016-08-24T03:20:18.162Z,0
2016-08-24T03:21:18.152Z,0
2016-08-24T03:22:18.153Z,0
2016-08-24T03:23:18.152Z,4
2016-08-24T03:24:18.151Z,4
2016-08-24T03:25:18.143Z,0
2016-08-24T03:26:18.140Z,4
2016-08-24T03:27:18.141Z,4
2016-08-24T03:28:18.127Z,4
2016-08-24T03:29:18.142Z,4
2016-08-24T03:30:18.130Z,4
2016-08-24T03:31:18.122Z,4
2016-08-24T03:32:18.124Z,4
2016-08-24T03:33:18.123Z,8
2016-08-24T03:34:18.119Z,8
2016-08-24T03:35:18.121Z,12
2016-08-24T03:36:18.111Z,12
2016-08-24T03:37:18.117Z,16
2016-08-24T03:38:18.114Z,20
2016-08-24T03:39:18.112Z,20
2016-08-24T03:40:18.110Z,24
2016-08-24T03:41:19.654Z,32
2016-08-24T03:42:18.902Z,36
2016-08-24T03:43:19.406Z,40
2016-08-24T03:44:19.500Z,48
2016-08-24T03:45:18.847Z,52
2016-08-24T03:46:18.089Z,64
2016-08-24T03:47:18.095Z,68
2016-08-24T03:48:18.083Z,80
2016-08-24T03:49:18.087Z,92
2016-08-24T03:50:18.187Z,104
2016-08-24T03:51:19.156Z,116
2016-08-24T03:52:18.833Z,136
2016-08-24T03:53:18.525Z,148
2016-08-24T03:54:18.280Z,168
2016-08-24T03:55:18.071Z,188
2016-08-24T03:56:18.068Z,208
2016-08-24T03:57:18.078Z,232
2016-08-24T03:58:18.067Z,256
2016-08-24T03:59:18.082Z,284
2016-08-24T04:00:18.058Z,308
2016-08-24T04:01:18.061Z,332
2016-08-24T04:02:18.068Z,360
2016-08-24T04:03:18.061Z,392
2016-08-24T04:04:18.058Z,424
2016-08-24T04:05:18.042Z,452
2016-08-24T04:06:18.047Z,480
2016-08-24T04:07:18.045Z,512
2016-08-24T04:08:18.041Z,540
2016-08-24T04:09:18.051Z,568
2016-08-24T04:10:18.034Z,592
2016-08-24T04:11:18.032Z,624
2016-08-24T04:12:18.026Z,648
2016-08-24T04:13:18.024Z,680
2016-08-24T04:14:18.023Z,720
2016-08-24T04:15:18.015Z,756
2016-08-24T04:16:18.013Z,800
2016-08-24T04:17:18.013Z,848
2016-08-24T04:18:18.023Z,888
2016-08-24T04:19:18.022Z,924
2016-08-24T04:20:18.013Z,952
2016-08-24T04:21:20.501Z,968
2016-08-24T04:23:20.586Z,1008
2016-08-24T04:24:19.735Z,1032
2016-08-24T04:25:18.645Z,1052
2016-08-24T04:26:18.590Z,1076
2016-08-24T04:27:18.170Z,1104
2016-08-24T04:28:17.985Z,1144
2016-08-24T04:29:17.993Z,1188
2016-08-24T04:30:19.558Z,1260
2016-08-24T04:31:20.736Z,1328
2016-08-24T04:32:18.558Z,1400
2016-08-24T04:33:18.104Z,1476
2016-08-24T04:34:19.318Z,1556
2016-08-24T04:35:17.973Z,1624
2016-08-24T04:36:17.968Z,1704
2016-08-24T04:37:17.968Z,1784
2016-08-24T04:38:17.976Z,1868
2016-08-24T04:39:17.957Z,1960
2016-08-24T04:40:17.965Z,2064
2016-08-24T04:41:17.951Z,2188
2016-08-24T04:42:17.954Z,2336
2016-08-24T04:43:17.949Z,2492
2016-08-24T04:44:17.953Z,2644
2016-08-24T04:45:17.945Z,2788
2016-08-24T04:46:17.948Z,2920
2016-08-24T04:47:17.946Z,3028
2016-08-24T04:48:17.942Z,3120
2016-08-24T04:49:17.944Z,3220
2016-08-24T04:50:17.941Z,3332
2016-08-24T04:51:18.630Z,3452
2016-08-24T04:52:17.943Z,3548
2016-08-24T04:53:17.936Z,3632
2016-08-24T04:54:17.925Z,3696
2016-08-24T04:55:17.928Z,3772
2016-08-24T04:56:18.624Z,3860
2016-08-24T04:57:17.921Z,4028
2016-08-24T04:58:17.926Z,4204
2016-08-24T04:59:18.621Z,4472
2016-08-24T05:00:18.667Z,4596
2016-08-24T05:01:18.513Z,4800
2016-08-24T05:02:17.961Z,5048
2016-08-24T05:03:17.964Z,5276
2016-08-24T05:04:17.906Z,5476
2016-08-24T05:05:17.915Z,5636
2016-08-24T05:06:17.919Z,5700
2016-08-24T05:07:18.598Z,5692
2016-08-24T05:08:18.860Z,5664
2016-08-24T05:09:18.754Z,5684
2016-08-24T05:10:18.947Z,5776
2016-08-24T05:11:18.202Z,5952
2016-08-24T05:12:17.902Z,6184
2016-08-24T05:13:17.897Z,6444
2016-08-24T05:14:17.895Z,6732
2016-08-24T05:15:17.903Z,7048
2016-08-24T05:16:17.898Z,7348
2016-08-24T05:17:17.888Z,7632
2016-08-24T05:18:17.897Z,7840
2016-08-24T05:19:17.884Z,7936
2016-08-24T05:20:17.890Z,7964
2016-08-24T05:21:17.889Z,8072
2016-08-24T05:22:17.886Z,8284
2016-08-24T05:23:17.889Z,8664
2016-08-24T05:24:17.882Z,9180
2016-08-24T05:25:17.885Z,9712
2016-08-24T05:26:17.878Z,10044
2016-08-24T05:27:17.884Z,10220
2016-08-24T05:28:17.880Z,10576
2016-08-24T05:29:17.878Z,10904
2016-08-24T05:30:17.877Z,12980
2016-08-24T05:31:17.887Z,11820
2016-08-24T05:32:17.881Z,10928
2016-08-24T05:33:17.873Z,11060
2016-08-24T05:34:17.882Z,14980
2016-08-24T05:35:17.877Z,16128
2016-08-24T05:36:17.871Z,13140
2016-08-24T05:37:17.883Z,13580
2016-08-24T05:38:17.882Z,14116
2016-08-24T05:39:19.393Z,17600
2016-08-24T05:40:21.003Z,20192
2016-08-24T05:41:19.519Z,19392
2016-08-24T05:42:19.437Z,20064
2016-08-24T05:43:19.065Z,20800
2016-08-24T05:44:18.579Z,22368
2016-08-24T05:45:17.880Z,23232
2016-08-24T05:46:17.882Z,23552
2016-08-24T05:47:17.898Z,22144
2016-08-24T05:48:21.622Z,21504
2016-08-24T05:49:19.404Z,22432
2016-08-24T05:50:17.998Z,24064
2016-08-24T05:51:18.319Z,24800
2016-08-24T05:52:18.205Z,24096
2016-08-24T05:53:18.920Z,23680
2016-08-24T05:54:17.910Z,23968
2016-08-24T05:55:17.930Z,24224
2016-08-24T05:56:17.905Z,24864
2016-08-24T05:57:17.921Z,25632
2016-08-24T05:58:17.922Z,25312
2016-08-24T05:59:17.925Z,23520
2016-08-24T06:00:18.626Z,23008
2016-08-24T06:01:17.938Z,21856
2016-08-24T06:02:17.943Z,22208
2016-08-24T06:03:17.955Z,23104
2016-08-24T06:04:17.969Z,23584
2016-08-24T06:05:17.969Z,23488
2016-08-24T06:06:17.971Z,23808
2016-08-24T06:07:17.984Z,23840
2016-08-24T06:08:17.980Z,23584
2016-08-24T06:09:18.009Z,22816
2016-08-24T06:10:18.001Z,20672
2016-08-24T06:11:18.007Z,19168
2016-08-24T06:12:18.013Z,20704
2016-08-24T06:13:18.021Z,22400
2016-08-24T06:14:18.287Z,20512
2016-08-24T06:15:18.056Z,18624
2016-08-24T06:16:18.049Z,16576
2016-08-24T06:17:18.358Z,15456
2016-08-24T06:18:19.369Z,15072
2016-08-24T06:19:18.089Z,14784
2016-08-24T06:20:18.486Z,14744
2016-08-24T06:21:19.251Z,15040
2016-08-24T06:22:18.355Z,15040
2016-08-24T06:23:18.110Z,14976
2016-08-24T06:24:18.116Z,15136
2016-08-24T06:25:18.137Z,16064
2016-08-24T06:26:18.843Z,18976
2016-08-24T06:27:18.599Z,22176
2016-08-24T06:28:19.019Z,23296
2016-08-24T06:29:18.557Z,22624
2016-08-24T06:30:18.834Z,21408
2016-08-24T06:31:18.690Z,21504
2016-08-24T06:32:18.210Z,20960
2016-08-24T06:33:18.213Z,18912
2016-08-24T06:34:18.218Z,16608
2016-08-24T06:35:18.230Z,15808
2016-08-24T06:36:18.234Z,15712
2016-08-24T06:37:18.256Z,15808
2016-08-24T06:38:18.258Z,16352
2016-08-24T06:39:18.272Z,16544
2016-08-24T06:40:18.289Z,16320
2016-08-24T06:41:18.300Z,17120
2016-08-24T06:42:18.303Z,18176
2016-08-24T06:43:18.326Z,19136
2016-08-24T06:44:18.340Z,20320
2016-08-24T06:45:18.334Z,21280
2016-08-24T06:46:18.344Z,21984
2016-08-24T06:47:18.359Z,22144
2016-08-24T06:48:18.372Z,22080
2016-08-24T06:49:18.376Z,22528
2016-08-24T06:50:18.401Z,23168
2016-08-24T06:51:18.403Z,23200
2016-08-24T06:52:18.413Z,23520
2016-08-24T06:53:18.431Z,24320
2016-08-24T06:54:18.432Z,25408
2016-08-24T06:55:18.445Z,26528
2016-08-24T06:56:18.468Z,26240
2016-08-24T06:57:20.987Z,26240
2016-08-24T06:58:19.524Z,26496
2016-08-24T06:59:18.490Z,26016
2016-08-24T07:00:19.047Z,26656
2016-08-24T07:01:19.282Z,27552
2016-08-24T07:02:18.526Z,26784
2016-08-24T07:03:18.789Z,26496
2016-08-24T07:04:18.560Z,25760
2016-08-24T07:05:18.559Z,25856
2016-08-24T07:06:19.188Z,26816
2016-08-24T07:08:21.032Z,27168
2016-08-24T07:09:18.612Z,25888
2016-08-24T07:10:19.000Z,25888
2016-08-24T07:11:18.634Z,25920
2016-08-24T07:12:18.894Z,25952
2016-08-24T07:13:18.773Z,27040
2016-08-24T07:14:18.668Z,28128
2016-08-24T07:15:18.683Z,27488
2016-08-24T07:16:18.694Z,27136
2016-08-24T07:17:18.705Z,27424
2016-08-24T07:18:18.716Z,27552
2016-08-24T07:19:18.734Z,28128
2016-08-24T07:20:18.744Z,28192
2016-08-24T07:21:18.756Z,27456
2016-08-24T07:22:18.769Z,27872
2016-08-24T07:23:19.481Z,28928
2016-08-24T07:24:18.799Z,29312
2016-08-24T07:25:18.821Z,29312
2016-08-24T07:26:18.813Z,29056
2016-08-24T07:27:18.849Z,28416
2016-08-24T07:28:18.849Z,28576
2016-08-24T07:29:18.859Z,29824
2016-08-24T07:30:18.869Z,30080
2016-08-24T07:31:18.886Z,29312
2016-08-24T07:32:18.897Z,28544
2016-08-24T07:33:18.911Z,28416
2016-08-24T07:34:18.916Z,28960
2016-08-24T07:35:19.830Z,29312
2016-08-24T07:36:20.010Z,29408
2016-08-24T07:37:19.161Z,29664
2016-08-24T07:38:33.890Z,29504
2016-08-24T07:39:18.986Z,29184
2016-08-24T07:40:19.001Z,29152
2016-08-24T07:41:19.667Z,29184
2016-08-24T07:42:19.033Z,29600
2016-08-24T07:43:19.036Z,28768
2016-08-24T07:44:20.654Z,27872
2016-08-24T07:45:20.214Z,27360
2016-08-24T07:46:19.172Z,27904
2016-08-24T07:47:19.089Z,28096
2016-08-24T07:48:19.111Z,28256
2016-08-24T07:49:19.572Z,28480
2016-08-24T07:50:19.129Z,28992
2016-08-24T07:51:19.353Z,28960
2016-08-24T07:52:19.173Z,28768
2016-08-24T07:53:19.174Z,28320
2016-08-24T07:54:19.183Z,27776
2016-08-24T07:55:19.202Z,26848
2016-08-24T07:56:19.213Z,26656
2016-08-24T07:57:19.231Z,27040
2016-08-24T07:58:19.250Z,27328
2016-08-24T07:59:19.252Z,27936
2016-08-24T08:00:19.275Z,27904
2016-08-24T08:01:19.281Z,28032
2016-08-24T08:02:19.290Z,28416
2016-08-24T08:03:19.316Z,27744
2016-08-24T08:04:19.332Z,28480
2016-08-24T08:05:19.343Z,28800
2016-08-24T08:06:20.051Z,28736
2016-08-24T08:07:19.361Z,28672
2016-08-24T08:08:19.379Z,28352
2016-08-24T08:09:19.393Z,29088
2016-08-24T08:10:19.406Z,29248
2016-08-24T08:11:19.433Z,29248
2016-08-24T08:12:19.432Z,29728
2016-08-24T08:13:19.449Z,30272
2016-08-24T08:14:19.457Z,29440
2016-08-24T08:16:20.194Z,30208
2016-08-24T08:17:19.497Z,29504
2016-08-24T08:18:20.521Z,31200
2016-08-24T08:19:21.085Z,32000
2016-08-24T08:20:20.277Z,32352
2016-08-24T08:21:19.562Z,31392
2016-08-24T08:22:19.566Z,10272
2016-08-24T08:23:19.575Z,9884
2016-08-24T08:24:19.610Z,24672
2016-08-24T08:25:22.997Z,32064
2016-08-24T08:26:22.240Z,33952
2016-08-24T08:27:20.052Z,12904
2016-08-24T08:28:20.854Z,32192
2016-08-24T08:29:20.352Z,34880
2016-08-24T08:30:19.668Z,35520
2016-08-24T08:31:19.700Z,32000
2016-08-24T08:32:19.689Z,21152
2016-08-24T08:33:19.700Z,14948
2016-08-24T08:34:19.722Z,14216
2016-08-24T08:35:19.736Z,13768
2016-08-24T08:36:19.740Z,13456
2016-08-24T08:37:19.755Z,13308
2016-08-24T08:38:19.774Z,13184
2016-08-24T08:39:19.772Z,13244
2016-08-24T08:40:19.784Z,13404
2016-08-24T08:41:19.797Z,12900
2016-08-24T08:42:19.816Z,13000
2016-08-24T08:43:19.820Z,12860
2016-08-24T08:44:19.836Z,12896
2016-08-24T08:45:19.830Z,13052
2016-08-24T08:46:19.845Z,13220
2016-08-24T08:47:19.852Z,13408
2016-08-24T08:48:19.879Z,13784
2016-08-24T08:49:19.874Z,14200
2016-08-24T08:50:19.883Z,14700
2016-08-24T08:51:19.889Z,14392
2016-08-24T08:52:19.900Z,13140
2016-08-24T08:53:35.780Z,12372
2016-08-24T08:54:21.416Z,12244
2016-08-24T08:55:35.097Z,12316
2016-08-24T08:56:20.433Z,13476
2016-08-24T08:57:20.203Z,14572
2016-08-24T08:58:19.944Z,14728
2016-08-24T08:59:19.954Z,13868
2016-08-24T09:00:19.968Z,13308
2016-08-24T09:01:19.975Z,12568
2016-08-24T09:02:21.831Z,11732
2016-08-24T09:03:20.492Z,11388
2016-08-24T09:04:20.844Z,11704
2016-08-24T09:05:20.954Z,12160
2016-08-24T09:06:20.010Z,12332
2016-08-24T09:07:20.023Z,12572
2016-08-24T09:08:20.020Z,12732
2016-08-24T09:09:20.039Z,12708
2016-08-24T09:10:20.050Z,12476
2016-08-24T09:11:20.058Z,12352
2016-08-24T09:12:20.061Z,11676
2016-08-24T09:13:20.060Z,12620
2016-08-24T09:14:20.072Z,11516
2016-08-24T09:15:20.075Z,9904
2016-08-24T09:16:20.085Z,9732
2016-08-24T09:17:20.095Z,9824
2016-08-24T09:18:20.107Z,9928
2016-08-24T09:19:20.103Z,10192
2016-08-24T09:20:20.115Z,10836
2016-08-24T09:21:20.125Z,11260
2016-08-24T09:22:20.144Z,10564
2016-08-24T09:23:20.826Z,10660
2016-08-24T09:24:20.138Z,10488
2016-08-24T09:25:20.144Z,10572
2016-08-24T09:26:20.154Z,10864
2016-08-24T09:27:20.160Z,10904
2016-08-24T09:28:20.167Z,10660
2016-08-24T09:29:20.175Z,10632
2016-08-24T09:30:20.183Z,10572
2016-08-24T09:31:20.181Z,10108
2016-08-24T09:32:20.191Z,9856
2016-08-24T09:33:20.195Z,9888
2016-08-24T09:35:20.950Z,9592
2016-08-24T09:36:22.377Z,9144
2016-08-24T09:37:20.358Z,8956
2016-08-24T09:38:20.226Z,8844
2016-08-24T09:39:20.238Z,8896
2016-08-24T09:40:20.238Z,9160
2016-08-24T09:41:20.236Z,9688
2016-08-24T09:42:20.250Z,9752
2016-08-24T09:43:21.774Z,8832
2016-08-24T09:44:20.266Z,8916
2016-08-24T09:45:21.953Z,9552
2016-08-24T09:46:20.273Z,9844
2016-08-24T09:47:20.269Z,9176
2016-08-24T09:48:20.281Z,9644
2016-08-24T09:49:20.283Z,9984
2016-08-24T09:50:20.287Z,9796
2016-08-24T09:51:20.301Z,9032
2016-08-24T09:52:20.308Z,8812
2016-08-24T09:53:20.312Z,9064
2016-08-24T09:54:20.311Z,8860
2016-08-24T09:55:20.326Z,8608
2016-08-24T09:56:20.328Z,8500
2016-08-24T09:57:20.339Z,8492
2016-08-24T09:58:20.353Z,8180
2016-08-24T09:59:20.337Z,7584
2016-08-24T10:00:20.352Z,7908
2016-08-24T10:01:20.371Z,8260
2016-08-24T10:07:20.388Z,8140
2016-08-24T10:08:20.388Z,7928
2016-08-24T10:09:20.389Z,7968
2016-08-24T10:10:20.405Z,8000
2016-08-24T10:11:22.502Z,8028
2016-08-24T10:12:20.758Z,7852
2016-08-24T10:13:21.071Z,7760
2016-08-24T10:14:20.720Z,7644
2016-08-24T10:15:20.420Z,7660
2016-08-24T10:16:20.422Z,7696
2016-08-24T10:17:20.429Z,7532
2016-08-24T10:18:20.431Z,7244
2016-08-24T10:19:20.438Z,6796
2016-08-24T10:20:22.141Z,7048
2016-08-24T10:21:20.997Z,7212
2016-08-24T10:23:21.258Z,7288
2016-08-24T10:24:20.459Z,7212
2016-08-24T10:25:20.860Z,7188
2016-08-24T10:26:20.823Z,7192
2016-08-24T10:27:20.474Z,7216
2016-08-24T10:29:20.483Z,7208
2016-08-24T10:30:20.492Z,7164
2016-08-24T10:35:23.543Z,7004
2016-08-24T10:36:20.515Z,7016
2016-08-24T10:37:20.522Z,6996
2016-08-24T10:40:20.531Z,6992
2016-08-24T10:43:25.505Z,6888
2016-08-24T10:44:21.247Z,6844
2016-08-24T10:45:20.551Z,6812
2016-08-24T10:46:22.082Z,6792
2016-08-24T10:47:20.555Z,6768
2016-08-24T10:48:26.810Z,6748
2016-08-24T10:49:27.521Z,6752
2016-08-24T10:50:21.265Z,6764
2016-08-24T10:52:22.105Z,6508
2016-08-24T10:53:22.221Z,6512
2016-08-24T10:54:21.983Z,6488
2016-08-24T10:55:22.258Z,6488
2016-08-24T10:56:20.613Z,6464
2016-08-24T10:57:20.605Z,6452
2016-08-24T10:58:20.609Z,6456
2016-08-24T10:59:20.615Z,6432
2016-08-24T11:00:20.632Z,6412
2016-08-24T11:01:21.427Z,6424
2016-08-24T11:02:21.840Z,6428
2016-08-24T11:03:21.805Z,6416
2016-08-24T11:04:23.671Z,6392
2016-08-24T11:05:21.379Z,6388
2016-08-24T11:06:20.651Z,6400
2016-08-24T11:07:20.884Z,6396
2016-08-24T11:08:20.661Z,6396
2016-08-24T11:09:20.707Z,6412
2016-08-24T11:10:21.359Z,6448
2016-08-24T11:11:20.660Z,6452
2016-08-24T11:12:20.662Z,6456
2016-08-24T11:13:22.810Z,6460
2016-08-24T11:14:20.677Z,6444
2016-08-24T11:15:20.681Z,6436
2016-08-24T11:16:20.682Z,6436
2016-08-24T11:17:20.685Z,6480
2016-08-24T11:18:20.687Z,6628
2016-08-24T11:19:20.706Z,6588
2016-08-24T11:20:20.699Z,6520
2016-08-24T11:21:20.697Z,6392
2016-08-24T11:22:20.712Z,6360
2016-08-24T11:23:20.707Z,6324
2016-08-24T11:24:20.719Z,6304
2016-08-24T11:25:20.719Z,6296
2016-08-24T11:26:20.719Z,6296
2016-08-24T11:27:20.742Z,6284
2016-08-24T11:28:20.735Z,6296
2016-08-24T11:29:21.586Z,6296
2016-08-24T11:30:36.657Z,6292
2016-08-24T11:31:50.977Z,6288
2016-08-24T11:32:35.716Z,6280
2016-08-24T11:33:35.967Z,6252
2016-08-24T11:34:20.762Z,6256
2016-08-24T11:35:20.774Z,6240
2016-08-24T11:36:20.756Z,6244
2016-08-24T11:37:20.767Z,6276
2016-08-24T11:38:21.722Z,6272
2016-08-24T11:39:21.377Z,6240
2016-08-24T11:40:20.785Z,6224
2016-08-24T11:41:20.787Z,6208
2016-08-24T11:42:20.808Z,6184
2016-08-24T11:43:21.099Z,6164
2016-08-24T11:44:20.809Z,6164
2016-08-24T11:45:20.805Z,6164
2016-08-24T11:46:20.814Z,6164
2016-08-24T11:47:20.807Z,6172
2016-08-24T11:48:20.820Z,6172
2016-08-24T11:49:20.823Z,6156
2016-08-24T11:50:21.524Z,6176
2016-08-24T11:51:20.828Z,6208
2016-08-24T11:52:20.837Z,6320
2016-08-24T11:53:20.848Z,6284
2016-08-24T11:54:20.842Z,6212
2016-08-24T11:55:20.853Z,6188
2016-08-24T11:56:20.862Z,6172
2016-08-24T11:57:20.854Z,6160
2016-08-24T11:58:20.865Z,6152
2016-08-24T11:59:20.862Z,6132
2016-08-24T12:00:20.864Z,6112
2016-08-24T12:01:20.875Z,6096
2016-08-24T12:02:20.881Z,6084
2016-08-24T12:03:20.885Z,6068
2016-08-24T12:04:20.891Z,6056
2016-08-24T12:05:20.902Z,6052
2016-08-24T12:06:20.898Z,6044
2016-08-24T12:07:20.906Z,6032
2016-08-24T12:08:20.907Z,6032
2016-08-24T12:09:20.908Z,6016
2016-08-24T12:10:22.899Z,6016
2016-08-24T12:11:23.761Z,6020
2016-08-24T12:12:20.937Z,6016
2016-08-24T12:13:22.462Z,6012
2016-08-24T12:14:20.939Z,6012
2016-08-24T12:15:22.035Z,6012
2016-08-24T12:16:21.656Z,6000
2016-08-24T12:17:21.650Z,5976
2016-08-24T12:18:20.953Z,5964
2016-08-24T12:19:22.601Z,5960
2016-08-24T12:20:23.190Z,5964
2016-08-24T12:21:23.625Z,5960
2016-08-24T12:22:22.346Z,5964
2016-08-24T12:23:20.972Z,5964
2016-08-24T12:24:20.973Z,5960
2016-08-24T12:25:21.365Z,5944
2016-08-24T12:26:20.983Z,5936
2016-08-24T12:27:20.997Z,5928
2016-08-24T12:28:20.997Z,5912
2016-08-24T12:29:21.000Z,5904
2016-08-24T12:30:21.009Z,5900
2016-08-24T12:31:21.010Z,5896
2016-08-24T12:32:21.022Z,5900
2016-08-24T12:33:21.029Z,5896
2016-08-24T12:34:21.030Z,5884
2016-08-24T12:35:21.025Z,5880
2016-08-24T12:36:21.036Z,5884
2016-08-24T12:37:21.045Z,5892
2016-08-24T12:38:21.048Z,5896
2016-08-24T12:39:21.043Z,5912
2016-08-24T12:40:21.054Z,5912
2016-08-24T12:41:21.050Z,5908
2016-08-24T12:42:21.058Z,5876
2016-08-24T12:43:21.065Z,5856
2016-08-24T12:44:21.072Z,5832
2016-08-24T12:45:21.069Z,5828
2016-08-24T12:46:21.095Z,5836
2016-08-24T12:47:36.301Z,5828
2016-08-24T12:48:37.501Z,5816
2016-08-24T12:49:21.694Z,5804
2016-08-24T12:50:22.150Z,5780
2016-08-24T12:51:21.309Z,5800
2016-08-24T12:52:21.556Z,5800
2016-08-24T12:53:21.910Z,5792
2016-08-24T12:54:21.412Z,5792
2016-08-24T12:55:21.121Z,5792
2016-08-24T12:56:22.025Z,5796
2016-08-24T12:57:23.085Z,5792
2016-08-24T12:58:22.241Z,5764
2016-08-24T12:59:21.336Z,5764
2016-08-24T13:00:21.140Z,5752
2016-08-24T13:01:21.143Z,5732
2016-08-24T13:02:21.149Z,5736
2016-08-24T13:03:21.153Z,5716
2016-08-24T13:04:21.162Z,5708
2016-08-24T13:05:21.263Z,5708
2016-08-24T13:06:21.169Z,5692
2016-08-24T13:07:21.181Z,5680
2016-08-24T13:08:21.173Z,5684
2016-08-24T13:09:21.185Z,5680
2016-08-24T13:10:21.185Z,5696
2016-08-24T13:11:21.190Z,5708
2016-08-24T13:12:21.201Z,5708
2016-08-24T13:13:21.204Z,5696
2016-08-24T13:14:21.206Z,5684
2016-08-24T13:15:21.208Z,5656
2016-08-24T13:16:21.909Z,5652
2016-08-24T13:17:21.223Z,5640
2016-08-24T13:18:21.920Z,5628
2016-08-24T13:19:21.230Z,5632
2016-08-24T13:20:21.237Z,5620
2016-08-24T13:21:21.239Z,5620
2016-08-24T13:22:21.934Z,5620
2016-08-24T13:23:21.246Z,5620
2016-08-24T13:24:21.258Z,5616
2016-08-24T13:25:21.277Z,5608
2016-08-24T13:26:21.262Z,5604
2016-08-24T13:27:21.260Z,5592
2016-08-24T13:28:23.797Z,5588
2016-08-24T13:30:22.167Z,5576
2016-08-24T13:31:21.288Z,5576
2016-08-24T13:32:22.098Z,5572
2016-08-24T13:33:22.308Z,5568
2016-08-24T13:34:21.427Z,5564
2016-08-24T13:35:21.302Z,5560
2016-08-24T13:36:21.323Z,5548
2016-08-24T13:37:22.830Z,5532
2016-08-24T13:38:24.180Z,5524
2016-08-24T13:39:21.529Z,5520
2016-08-24T13:40:21.334Z,5520
2016-08-24T13:41:21.929Z,5516
2016-08-24T13:42:22.357Z,5508
2016-08-24T13:43:21.714Z,5496
2016-08-24T13:44:21.336Z,5488
2016-08-24T13:45:21.343Z,5484
2016-08-24T13:46:21.358Z,5476
2016-08-24T13:47:21.353Z,5472
2016-08-24T13:48:21.355Z,5472
2016-08-24T13:49:21.367Z,5468
2016-08-24T13:50:21.368Z,5468
2016-08-24T13:51:21.375Z,5468
2016-08-24T13:52:21.374Z,5472
2016-08-24T13:53:21.384Z,5468
2016-08-24T13:54:21.390Z,5464
2016-08-24T13:55:21.415Z,5456
2016-08-24T13:56:21.395Z,5452
2016-08-24T13:57:21.412Z,5440
2016-08-24T13:58:21.411Z,5428
2016-08-24T13:59:21.417Z,5420
2016-08-24T14:00:21.413Z,5412